createdAt,value
2022-12-02T00:02:25.594Z,4.53
2022-12-02T00:05:00.005Z,4.79
2022-12-02T00:07:26.777Z,4.21
2022-12-02T00:09:53.428Z,4.13
2022-12-02T00:12:23.845Z,3.70
2022-12-02T00:14:55.867Z,3.40
2022-12-02T00:17:22.919Z,3.70
2022-12-02T00:19:50.063Z,3.80
2022-12-02T00:22:16.755Z,3.63
2022-12-02T00:24:43.453Z,3.97
2022-12-02T00:27:10.268Z,4.01
2022-12-02T00:29:37.008Z,3.73
2022-12-02T00:32:03.825Z,3.60
2022-12-02T00:34:30.492Z,3.66
2022-12-02T00:36:57.179Z,3.84
2022-12-02T00:39:23.821Z,4.06
2022-12-02T00:41:50.431Z,3.63
2022-12-02T00:44:17.075Z,3.45
2022-12-02T00:46:43.817Z,3.74
2022-12-02T00:49:15.610Z,3.80
2022-12-02T00:51:44.346Z,4.15
2022-12-02T00:54:12.640Z,3.99
2022-12-02T00:56:39.838Z,3.90
2022-12-02T00:59:07.062Z,4.17
2022-12-02T01:01:35.153Z,4.48
2022-12-02T01:04:01.952Z,4.37
2022-12-02T01:06:28.637Z,4.55
2022-12-02T01:08:55.291Z,4.88
2022-12-02T01:11:21.910Z,5.29
2022-12-02T01:13:48.614Z,5.72
2022-12-02T01:16:15.854Z,4.97
2022-12-02T01:18:42.694Z,4.69
2022-12-02T01:21:09.312Z,5.00
2022-12-02T01:23:36.198Z,5.39
2022-12-02T01:26:02.878Z,5.89
2022-12-02T01:28:29.502Z,6.11
2022-12-02T01:30:56.190Z,6.43
2022-12-02T01:33:22.927Z,5.97
2022-12-02T01:35:49.572Z,5.61
2022-12-02T01:38:16.201Z,5.64
2022-12-02T01:40:42.955Z,5.73
2022-12-02T01:43:09.993Z,5.15
2022-12-02T01:45:36.853Z,5.62
2022-12-02T01:48:05.092Z,5.99
2022-12-02T01:50:34.089Z,5.02
2022-12-02T01:53:01.307Z,5.29
2022-12-02T01:55:29.775Z,6.03
2022-12-02T01:57:58.467Z,6.10
2022-12-02T02:00:26.461Z,5.40
2022-12-02T02:02:53.288Z,4.79
2022-12-02T02:05:27.006Z,4.57
2022-12-02T02:07:58.571Z,4.33
2022-12-02T02:10:28.286Z,4.78
2022-12-02T02:12:55.495Z,5.27
2022-12-02T02:15:23.543Z,5.79
2022-12-02T02:17:51.354Z,5.51
2022-12-02T02:20:21.802Z,5.93
2022-12-02T02:23:06.713Z,4.95
2022-12-02T02:25:39.186Z,5.35
2022-12-02T02:28:07.874Z,5.00
2022-12-02T02:30:36.687Z,4.35
2022-12-02T02:33:07.587Z,4.78
2022-12-02T02:35:37.502Z,4.25
2022-12-02T02:38:08.661Z,3.94
2022-12-02T02:40:37.315Z,4.17
2022-12-02T02:43:05.075Z,4.45
2022-12-02T02:45:35.326Z,4.75
2022-12-02T02:48:05.637Z,4.21
2022-12-02T02:50:34.971Z,4.24
2022-12-02T02:53:03.654Z,4.37
2022-12-02T02:55:32.690Z,4.26
2022-12-02T02:58:33.866Z,4.65
2022-12-02T03:01:08.973Z,5.04
2022-12-02T03:03:42.139Z,4.70
2022-12-02T03:06:12.148Z,4.91
2022-12-02T03:08:44.591Z,4.60
2022-12-02T03:11:12.523Z,4.00
2022-12-02T03:13:42.848Z,4.14
2022-12-02T03:16:14.025Z,4.28
2022-12-02T03:18:43.828Z,4.01
2022-12-02T03:21:12.526Z,3.82
2022-12-02T03:23:39.867Z,4.09
2022-12-02T03:26:07.324Z,3.99
2022-12-02T03:28:34.978Z,3.73
2022-12-02T03:31:02.316Z,3.97
2022-12-02T03:33:29.604Z,4.22
2022-12-02T03:35:56.496Z,3.66
2022-12-02T03:38:23.335Z,4.20
2022-12-02T03:40:50.506Z,4.72
2022-12-02T03:43:17.190Z,4.45
2022-12-02T03:45:43.944Z,4.27
2022-12-02T03:48:12.887Z,4.00
2022-12-02T03:50:41.103Z,4.20
2022-12-02T03:53:07.827Z,4.31
2022-12-02T03:55:35.352Z,4.78
2022-12-02T03:58:06.602Z,4.74
2022-12-02T04:00:34.855Z,4.71
2022-12-02T04:03:01.809Z,4.24
2022-12-02T04:05:28.876Z,3.72
2022-12-02T04:07:55.584Z,3.84
2022-12-02T04:10:22.377Z,3.69
2022-12-02T04:13:09.018Z,3.87
2022-12-02T04:15:46.829Z,3.92
2022-12-02T04:18:13.456Z,3.48
2022-12-02T04:20:40.140Z,3.68
2022-12-02T04:23:06.899Z,3.76
2022-12-02T04:25:33.539Z,3.75
2022-12-02T04:28:00.175Z,3.59
2022-12-02T04:30:26.864Z,3.59
2022-12-02T04:32:53.534Z,3.79
2022-12-02T04:35:20.135Z,3.88
2022-12-02T04:37:46.744Z,3.75
2022-12-02T04:40:13.837Z,3.88
2022-12-02T04:42:40.472Z,3.60
2022-12-02T04:45:07.574Z,3.69
2022-12-02T04:47:34.204Z,3.21
2022-12-02T04:50:00.842Z,3.13
2022-12-02T04:52:27.891Z,3.34
2022-12-02T04:54:54.543Z,3.57
2022-12-02T04:57:22.618Z,3.62
2022-12-02T04:59:52.067Z,3.78
2022-12-02T05:02:18.847Z,3.56
2022-12-02T05:04:45.590Z,3.91
2022-12-02T05:07:12.247Z,3.71
2022-12-02T05:09:38.880Z,3.54
2022-12-02T05:12:05.590Z,3.17
2022-12-02T05:14:32.279Z,3.38
2022-12-02T05:16:58.926Z,3.51
2022-12-02T05:19:25.533Z,3.41
2022-12-02T05:21:52.179Z,3.25
2022-12-02T05:24:18.796Z,2.90
2022-12-02T05:26:45.533Z,3.23
2022-12-02T05:29:12.232Z,3.13
2022-12-02T05:31:38.923Z,3.02
2022-12-02T05:34:05.899Z,3.05
2022-12-02T05:36:32.557Z,3.18
2022-12-02T05:38:59.185Z,3.53
2022-12-02T05:41:25.885Z,3.69
2022-12-02T05:43:52.695Z,3.83
2022-12-02T05:46:21.381Z,3.89
2022-12-02T05:48:50.549Z,3.80
2022-12-02T05:51:22.179Z,3.53
2022-12-02T05:53:50.971Z,3.84
2022-12-02T05:56:26.864Z,3.55
2022-12-02T05:59:02.801Z,3.33
2022-12-02T06:01:38.288Z,3.29
2022-12-02T06:04:12.551Z,3.32
2022-12-02T06:06:39.331Z,3.48
2022-12-02T06:09:17.938Z,3.41
2022-12-02T06:11:47.696Z,3.51
2022-12-02T06:14:22.764Z,3.30
2022-12-02T06:16:53.906Z,3.03
2022-12-02T06:19:27.112Z,3.47
2022-12-02T06:21:58.871Z,3.39
2022-12-02T06:24:32.832Z,3.60
2022-12-02T06:27:02.432Z,3.59
2022-12-02T06:29:32.111Z,4.01
2022-12-02T06:32:00.621Z,3.92
2022-12-02T06:34:41.143Z,4.03
2022-12-02T06:37:17.700Z,4.67
2022-12-02T06:40:11.823Z,5.18
2022-12-02T06:42:38.467Z,5.49
2022-12-02T06:45:28.899Z,5.37
2022-12-02T06:48:00.459Z,5.18
2022-12-02T06:50:29.618Z,4.76
2022-12-02T06:53:07.890Z,4.62
2022-12-02T06:55:37.326Z,4.26
2022-12-02T06:58:38.090Z,4.54
2022-12-02T07:01:07.799Z,5.30
2022-12-02T07:03:40.048Z,5.18
2022-12-02T07:06:16.411Z,5.10
2022-12-02T07:08:43.671Z,5.33
2022-12-02T07:11:21.921Z,5.67
2022-12-02T07:13:49.276Z,5.91
2022-12-02T07:16:33.391Z,6.16
2022-12-02T07:19:00.386Z,6.57
2022-12-02T07:21:27.211Z,5.91
2022-12-02T07:23:54.960Z,5.54
2022-12-02T07:26:21.679Z,5.47
2022-12-02T07:28:50.997Z,6.04
2022-12-02T07:31:28.437Z,6.29
2022-12-02T07:33:56.515Z,6.38
2022-12-02T07:36:23.288Z,6.03
2022-12-02T07:39:06.804Z,6.77
2022-12-02T07:41:36.845Z,6.42
2022-12-02T07:44:05.805Z,6.69
2022-12-02T07:46:32.543Z,7.07
2022-12-02T07:48:59.432Z,7.02
2022-12-02T07:51:26.303Z,6.57
2022-12-02T07:53:53.175Z,6.44
2022-12-02T07:56:19.887Z,6.48
2022-12-02T08:01:33.333Z,6.67
2022-12-02T08:04:00.038Z,7.22
2022-12-02T08:06:26.798Z,7.85
2022-12-02T08:08:53.548Z,7.64
2022-12-02T08:11:20.328Z,7.61
2022-12-02T08:13:47.175Z,7.70
2022-12-02T08:16:13.904Z,7.92
2022-12-02T08:18:40.681Z,7.78
2022-12-02T08:21:09.287Z,7.00
2022-12-02T08:23:36.338Z,6.60
2022-12-02T08:26:03.228Z,6.52
2022-12-02T08:28:29.966Z,6.84
2022-12-02T08:30:58.492Z,5.94
2022-12-02T08:33:25.302Z,6.04
2022-12-02T08:35:51.925Z,6.08
2022-12-02T08:38:19.000Z,6.65
2022-12-02T08:40:46.322Z,6.98
2022-12-02T08:43:13.125Z,6.45
2022-12-02T08:45:40.725Z,6.88
2022-12-02T08:48:07.500Z,6.37
2022-12-02T08:50:34.182Z,6.25
2022-12-02T08:53:00.956Z,6.24
2022-12-02T08:55:27.946Z,6.07
2022-12-02T08:57:54.609Z,6.39
2022-12-02T09:00:21.920Z,6.72
2022-12-02T09:02:48.782Z,6.64
2022-12-02T09:05:15.982Z,7.27
2022-12-02T09:07:43.048Z,7.55
2022-12-02T09:10:11.326Z,8.22
2022-12-02T09:12:38.046Z,8.40
2022-12-02T09:15:05.562Z,7.78
2022-12-02T09:17:32.207Z,7.62
2022-12-02T09:19:59.197Z,7.96
2022-12-02T09:22:25.842Z,8.41
2022-12-02T09:24:52.892Z,8.16
2022-12-02T09:27:19.794Z,8.41
2022-12-02T09:29:46.464Z,8.50
2022-12-02T09:32:13.100Z,9.10
2022-12-02T09:34:39.779Z,9.29
2022-12-02T09:37:06.476Z,9.33
2022-12-02T09:39:38.477Z,8.67
2022-12-02T09:42:07.800Z,8.99
2022-12-02T09:44:35.218Z,9.29
2022-12-02T09:47:02.479Z,8.84
2022-12-02T09:49:31.470Z,9.20
2022-12-02T09:52:02.651Z,9.29
2022-12-02T09:54:29.624Z,9.17
2022-12-02T09:56:56.787Z,9.32
2022-12-02T09:59:23.521Z,9.54
2022-12-02T10:01:50.825Z,9.64
2022-12-02T10:04:21.087Z,9.32
2022-12-02T10:06:49.055Z,9.51
2022-12-02T10:09:27.927Z,9.56
2022-12-02T10:11:55.011Z,8.53
2022-12-02T10:14:22.619Z,8.71
2022-12-02T10:16:53.652Z,9.04
2022-12-02T10:19:21.659Z,9.39
2022-12-02T10:21:52.361Z,8.95
2022-12-02T10:24:38.663Z,9.34
2022-12-02T10:27:05.508Z,9.47
2022-12-02T10:29:33.892Z,9.03
2022-12-02T10:32:04.061Z,9.43
2022-12-02T10:34:33.558Z,9.49
2022-12-02T10:37:24.763Z,8.61
2022-12-02T10:40:16.475Z,8.91
2022-12-02T10:42:44.549Z,8.84
2022-12-02T10:45:24.655Z,8.97
2022-12-02T10:48:11.833Z,8.86
2022-12-02T10:50:38.583Z,8.50
2022-12-02T10:53:14.831Z,8.87
2022-12-02T10:55:42.461Z,8.80
2022-12-02T10:58:27.807Z,8.11
2022-12-02T11:00:55.337Z,8.61
2022-12-02T11:03:22.212Z,8.68
2022-12-02T11:05:49.995Z,8.01
2022-12-02T11:08:19.588Z,8.05
2022-12-02T11:11:10.850Z,8.27
2022-12-02T11:13:56.323Z,7.72
2022-12-02T11:16:29.137Z,8.30
2022-12-02T11:19:04.604Z,7.96
2022-12-02T11:21:31.271Z,8.06
2022-12-02T11:24:22.834Z,8.67
2022-12-02T11:27:12.118Z,8.46
2022-12-02T11:30:03.736Z,8.84
2022-12-02T11:32:36.256Z,7.94
2022-12-02T11:35:20.300Z,8.59
2022-12-02T11:37:48.574Z,7.80
2022-12-02T11:40:18.093Z,7.60
2022-12-02T11:42:46.694Z,8.14
2022-12-02T11:45:16.430Z,8.60
2022-12-02T11:47:44.129Z,8.38
2022-12-02T11:50:16.978Z,8.61
2022-12-02T11:52:56.023Z,8.37
2022-12-02T11:55:29.217Z,8.03
2022-12-02T11:57:58.713Z,7.37
2022-12-02T12:00:37.992Z,7.30
2022-12-02T12:03:11.170Z,7.25
2022-12-02T12:05:41.855Z,7.26
2022-12-02T12:08:08.691Z,7.02
2022-12-02T12:10:38.738Z,7.79
2022-12-02T12:13:19.499Z,8.02
2022-12-02T12:15:59.426Z,8.43
2022-12-02T12:18:36.199Z,8.77
2022-12-02T12:21:03.591Z,8.86
2022-12-02T12:23:37.483Z,8.90
2022-12-02T12:26:39.174Z,8.45
2022-12-02T12:29:06.073Z,8.50
2022-12-02T12:31:38.030Z,8.71
2022-12-02T12:34:07.229Z,9.16
2022-12-02T12:36:35.862Z,8.92
2022-12-02T12:39:03.171Z,8.86
2022-12-02T12:41:59.168Z,9.34
2022-12-02T12:44:16.855Z,9.33
2022-12-02T12:46:44.071Z,8.73
2022-12-02T12:49:11.160Z,9.21
2022-12-02T12:51:38.009Z,9.30
2022-12-02T12:54:04.692Z,9.02
2022-12-02T12:56:31.515Z,9.30
2022-12-02T12:58:58.223Z,9.53
2022-12-02T13:01:25.397Z,9.51
2022-12-02T13:03:52.185Z,9.48
2022-12-02T13:06:18.833Z,9.58
2022-12-02T13:08:45.478Z,9.37
2022-12-02T13:11:12.115Z,9.61
2022-12-02T13:13:38.745Z,9.87
2022-12-02T13:16:05.545Z,10.03
2022-12-02T13:18:32.179Z,10.04
2022-12-02T13:20:58.892Z,9.85
2022-12-02T13:23:25.513Z,9.94
2022-12-02T13:25:52.162Z,9.98
2022-12-02T13:28:18.782Z,9.87
2022-12-02T13:30:45.489Z,9.47
2022-12-02T13:33:12.208Z,9.61
2022-12-02T13:35:38.834Z,9.09
2022-12-02T13:38:05.444Z,9.48
2022-12-02T13:40:32.136Z,9.63
2022-12-02T13:42:58.773Z,9.77
2022-12-02T13:45:25.545Z,9.63
2022-12-02T13:47:52.176Z,9.79
2022-12-02T13:50:18.843Z,9.17
2022-12-02T13:52:45.475Z,8.78
2022-12-02T13:55:12.102Z,8.95
2022-12-02T13:57:38.761Z,9.33
2022-12-02T14:00:06.101Z,9.28
2022-12-02T14:02:32.766Z,8.27
2022-12-02T14:05:04.226Z,9.01
2022-12-02T14:07:34.889Z,9.25
2022-12-02T14:10:01.675Z,9.20
2022-12-02T14:12:28.280Z,9.35
2022-12-02T14:14:55.210Z,9.32
2022-12-02T14:17:22.022Z,9.04
2022-12-02T14:19:48.715Z,8.40
2022-12-02T14:22:15.417Z,8.63
2022-12-02T14:24:45.840Z,9.22
2022-12-02T14:27:15.429Z,9.44
2022-12-02T14:29:42.114Z,9.48
2022-12-02T14:32:08.828Z,9.38
2022-12-02T14:34:35.558Z,9.26
2022-12-02T14:37:02.229Z,9.60
2022-12-02T14:39:28.864Z,9.66
2022-12-02T14:41:56.368Z,9.59
2022-12-02T14:44:23.237Z,9.03
2022-12-02T14:46:50.000Z,9.22
2022-12-02T14:49:38.895Z,9.46
2022-12-02T14:52:03.582Z,9.65
2022-12-02T14:54:30.201Z,9.64
2022-12-02T14:56:56.895Z,9.13
2022-12-02T14:59:23.526Z,8.89
2022-12-02T15:01:50.214Z,8.79
2022-12-02T15:04:16.976Z,9.17
2022-12-02T15:06:43.600Z,9.60
2022-12-02T15:09:10.580Z,9.63
2022-12-02T15:11:37.213Z,9.60
2022-12-02T15:14:08.813Z,9.75
2022-12-02T15:16:38.634Z,9.24
2022-12-02T15:19:05.356Z,9.38
2022-12-02T15:21:31.996Z,9.47
2022-12-02T15:23:58.630Z,9.51
2022-12-02T15:26:25.249Z,9.68
2022-12-02T15:28:51.977Z,9.34
2022-12-02T15:31:18.830Z,9.51
2022-12-02T15:33:47.008Z,9.35
2022-12-02T15:36:14.277Z,9.30
2022-12-02T15:38:43.901Z,9.03
2022-12-02T15:41:12.969Z,9.05
2022-12-02T15:43:39.605Z,7.88
2022-12-02T15:46:06.434Z,7.75
2022-12-02T15:48:33.167Z,6.84
2022-12-02T15:50:59.841Z,7.29
2022-12-02T15:53:28.887Z,8.12
2022-12-02T15:55:55.524Z,7.68
2022-12-02T15:58:22.131Z,6.50
2022-12-02T16:00:48.868Z,6.18
2022-12-02T16:03:15.735Z,5.61
2022-12-02T16:05:44.046Z,5.35
2022-12-02T16:08:11.518Z,5.96
2022-12-02T16:10:38.573Z,6.13
2022-12-02T16:13:05.376Z,6.90
2022-12-02T16:15:38.326Z,6.12
2022-12-02T16:18:08.355Z,6.05
2022-12-02T16:20:35.593Z,5.78
2022-12-02T16:23:02.955Z,5.66
2022-12-02T16:25:29.619Z,5.17
2022-12-02T16:27:56.344Z,5.24
2022-12-02T16:30:22.982Z,5.01
2022-12-02T16:32:49.654Z,5.21
2022-12-02T16:35:16.414Z,4.93
2022-12-02T16:37:43.189Z,4.87
2022-12-02T16:40:10.601Z,4.67
2022-12-02T16:42:37.230Z,4.71
2022-12-02T16:45:04.538Z,4.67
2022-12-02T16:47:31.338Z,4.84
2022-12-02T16:49:58.134Z,4.97
2022-12-02T16:52:24.947Z,4.38
2022-12-02T16:54:51.878Z,4.32
2022-12-02T16:57:18.768Z,4.35
2022-12-02T16:59:45.463Z,4.49
2022-12-02T17:02:12.186Z,4.53
2022-12-02T17:04:38.903Z,4.52
2022-12-02T17:07:05.617Z,4.72
2022-12-02T17:09:32.320Z,4.67
2022-12-02T17:11:59.454Z,4.47
2022-12-02T17:14:26.078Z,4.53
2022-12-02T17:16:52.751Z,4.29
2022-12-02T17:19:20.036Z,4.29
2022-12-02T17:21:46.777Z,4.47
2022-12-02T17:24:13.533Z,4.59
2022-12-02T17:26:40.194Z,4.39
2022-12-02T17:29:09.151Z,4.34
2022-12-02T17:31:35.844Z,4.48
2022-12-02T17:34:02.566Z,4.34
2022-12-02T17:36:29.365Z,4.19
2022-12-02T17:38:57.611Z,4.34
2022-12-02T17:41:25.575Z,4.59
2022-12-02T17:43:53.101Z,4.31
2022-12-02T17:46:20.319Z,4.24
2022-12-02T17:48:47.399Z,4.13
2022-12-02T17:51:14.524Z,4.52
2022-12-02T17:53:41.604Z,4.30
2022-12-02T17:56:09.299Z,4.29
2022-12-02T17:58:36.860Z,4.29
2022-12-02T18:01:11.356Z,4.23
2022-12-02T18:03:39.184Z,4.52
2022-12-02T18:06:06.558Z,4.23
2022-12-02T18:08:33.886Z,4.30
2022-12-02T18:11:00.704Z,4.20
2022-12-02T18:13:27.868Z,4.26
2022-12-02T18:15:54.702Z,4.81
2022-12-02T18:18:21.324Z,5.02
2022-12-02T18:20:47.971Z,4.59
2022-12-02T18:23:14.623Z,4.66
2022-12-02T18:25:41.314Z,4.58
2022-12-02T18:28:08.174Z,4.35
2022-12-02T18:30:34.864Z,4.17
2022-12-02T18:33:01.598Z,4.08
2022-12-02T18:35:28.500Z,4.21
2022-12-02T18:37:55.202Z,4.09
2022-12-02T18:40:21.923Z,4.15
2022-12-02T18:42:48.626Z,4.13
2022-12-02T18:45:16.068Z,4.23
2022-12-02T18:47:42.885Z,4.00
2022-12-02T18:50:11.362Z,3.96
2022-12-02T18:52:38.125Z,4.03
2022-12-02T18:55:06.098Z,3.94
2022-12-02T18:57:32.912Z,3.90
2022-12-02T18:59:59.905Z,4.02
2022-12-02T19:02:26.650Z,3.84
2022-12-02T19:04:53.549Z,3.98
2022-12-02T19:07:20.400Z,4.08
2022-12-02T19:09:53.694Z,4.26
2022-12-02T19:12:21.221Z,3.83
2022-12-02T19:14:47.908Z,3.87
2022-12-02T19:17:14.731Z,3.93
2022-12-02T19:19:41.551Z,3.86
2022-12-02T19:22:09.547Z,3.82
2022-12-02T19:24:36.531Z,3.91
2022-12-02T19:27:03.493Z,4.16
2022-12-02T19:29:30.316Z,3.81
2022-12-02T19:31:57.048Z,4.03
2022-12-02T19:34:23.803Z,4.12
2022-12-02T19:36:50.506Z,3.81
2022-12-02T19:39:17.210Z,3.84
2022-12-02T19:41:43.985Z,4.09
2022-12-02T19:44:10.619Z,3.87
2022-12-02T19:46:39.655Z,3.69
2022-12-02T19:49:06.408Z,4.02
2022-12-02T19:51:33.150Z,4.52
2022-12-02T19:54:00.942Z,4.14
2022-12-02T19:56:27.684Z,3.97
2022-12-02T19:58:55.537Z,3.87
2022-12-02T20:01:23.517Z,3.94
2022-12-02T20:03:50.246Z,3.80
2022-12-02T20:06:17.013Z,3.83
2022-12-02T20:08:45.171Z,3.76
2022-12-02T20:11:11.906Z,3.61
2022-12-02T20:13:38.542Z,3.83
2022-12-02T20:16:05.291Z,3.99
2022-12-02T20:18:32.005Z,3.75
2022-12-02T20:20:58.603Z,3.73
2022-12-02T20:23:25.246Z,3.75
2022-12-02T20:25:51.922Z,3.61
2022-12-02T20:28:18.531Z,3.59
2022-12-02T20:30:45.253Z,3.51
2022-12-02T20:33:12.008Z,3.72
2022-12-02T20:35:38.723Z,3.98
2022-12-02T20:38:05.400Z,3.48
2022-12-02T20:40:32.032Z,3.70
2022-12-02T20:42:58.714Z,3.68
2022-12-02T20:45:25.673Z,3.41
2022-12-02T20:47:52.329Z,3.45
2022-12-02T20:50:18.991Z,3.28
2022-12-02T20:52:52.895Z,3.48
2022-12-02T20:55:20.524Z,3.20
2022-12-02T20:57:47.160Z,3.17
2022-12-02T21:00:14.137Z,3.07
2022-12-02T21:02:40.886Z,2.93
2022-12-02T21:05:08.139Z,2.94
2022-12-02T21:07:34.955Z,3.11
2022-12-02T21:10:04.527Z,3.22
2022-12-02T21:12:31.179Z,2.98
2022-12-02T21:14:57.950Z,2.96
2022-12-02T21:17:24.632Z,3.08
2022-12-02T21:19:51.275Z,3.44
2022-12-02T21:22:18.015Z,3.14
2022-12-02T21:24:44.613Z,3.11
2022-12-02T21:27:11.312Z,2.85
2022-12-02T21:29:37.995Z,3.00
2022-12-02T21:32:04.929Z,3.37
2022-12-02T21:34:32.904Z,3.23
2022-12-02T21:36:59.631Z,3.11
2022-12-02T21:39:26.260Z,3.10
2022-12-02T21:41:52.900Z,3.01
2022-12-02T21:44:19.551Z,2.95
2022-12-02T21:46:46.182Z,3.34
2022-12-02T21:49:12.844Z,3.15
2022-12-02T21:51:39.471Z,3.04
2022-12-02T21:54:06.130Z,2.87
2022-12-02T21:56:37.028Z,3.01
2022-12-02T21:59:04.504Z,2.96
2022-12-02T22:01:31.324Z,3.15
2022-12-02T22:03:58.108Z,2.99
2022-12-02T22:06:24.863Z,2.87
2022-12-02T22:08:51.562Z,2.87
2022-12-02T22:11:18.623Z,3.02
2022-12-02T22:13:46.156Z,3.02
2022-12-02T22:16:12.862Z,3.17
2022-12-02T22:18:39.855Z,2.85
2022-12-02T22:21:06.575Z,2.65
2022-12-02T22:23:33.199Z,2.63
2022-12-02T22:25:59.891Z,2.72
2022-12-02T22:28:26.557Z,2.80
2022-12-02T22:30:53.243Z,3.05
2022-12-02T22:33:19.889Z,2.96
2022-12-02T22:35:46.586Z,2.82
2022-12-02T22:38:13.213Z,2.96
2022-12-02T22:40:40.025Z,2.74
2022-12-02T22:43:07.225Z,2.83
2022-12-02T22:45:34.011Z,2.85
2022-12-02T22:48:00.703Z,2.99
2022-12-02T22:50:27.554Z,2.94
2022-12-02T22:52:54.192Z,2.80
2022-12-02T22:55:20.963Z,2.65
2022-12-02T22:57:48.942Z,2.71
2022-12-02T23:00:16.890Z,2.50
2022-12-02T23:02:44.094Z,2.90
2022-12-02T23:05:11.560Z,2.69
2022-12-02T23:07:38.345Z,2.62
2022-12-02T23:10:05.705Z,2.59
2022-12-02T23:12:32.386Z,2.52
2022-12-02T23:15:33.707Z,2.71
2022-12-02T23:17:46.181Z,2.80
2022-12-02T23:20:13.456Z,3.13
2022-12-02T23:22:40.097Z,2.96
2022-12-02T23:25:07.184Z,2.56
2022-12-02T23:27:33.836Z,2.70
2022-12-02T23:30:00.467Z,2.92
2022-12-02T23:32:27.062Z,3.19
2022-12-02T23:34:53.988Z,3.74
2022-12-02T23:37:20.847Z,3.99
2022-12-02T23:39:47.460Z,4.84
2022-12-02T23:42:14.106Z,4.68
2022-12-02T23:44:40.715Z,4.98
2022-12-02T23:47:07.389Z,5.36
2022-12-02T23:49:33.999Z,5.78
2022-12-02T23:52:00.687Z,5.63
2022-12-02T23:54:27.351Z,5.40
2022-12-02T23:56:53.999Z,5.53
2022-12-02T23:59:21.043Z,4.88
